createdAt,value
2018-02-19T00:00:04.938Z,1.66
2018-02-19T00:02:32.362Z,1.66
2018-02-19T00:04:59.793Z,1.63
2018-02-19T00:07:27.644Z,1.58
2018-02-19T00:09:55.066Z,1.61
2018-02-19T00:12:22.485Z,1.59
2018-02-19T00:14:49.927Z,1.69
2018-02-19T00:17:17.346Z,1.64
2018-02-19T00:19:44.786Z,1.68
2018-02-19T00:22:12.217Z,1.69
2018-02-19T00:24:39.641Z,1.64
2018-02-19T00:27:07.072Z,1.63
2018-02-19T00:29:34.551Z,1.62
2018-02-19T00:32:01.978Z,1.56
2018-02-19T00:34:29.401Z,1.58
2018-02-19T00:36:56.841Z,1.49
2018-02-19T00:39:24.283Z,1.55
2018-02-19T00:41:51.698Z,1.47
2018-02-19T00:44:19.118Z,1.51
2018-02-19T00:46:46.545Z,1.56
2018-02-19T00:49:13.994Z,1.56
2018-02-19T00:51:41.414Z,1.64
2018-02-19T00:54:08.822Z,1.60
2018-02-19T00:56:36.242Z,1.58
2018-02-19T00:59:03.665Z,1.51
2018-02-19T01:01:31.095Z,1.54
2018-02-19T01:03:58.517Z,1.53
2018-02-19T01:06:25.949Z,1.56
2018-02-19T01:08:53.362Z,1.50
2018-02-19T01:11:20.782Z,1.47
2018-02-19T01:13:48.193Z,1.52
2018-02-19T01:16:15.610Z,1.44
2018-02-19T01:18:43.042Z,1.45
2018-02-19T01:21:10.459Z,1.48
2018-02-19T01:23:37.873Z,1.50
2018-02-19T01:26:05.300Z,1.52
2018-02-19T01:28:32.727Z,1.53
2018-02-19T01:31:00.137Z,1.41
2018-02-19T01:33:27.555Z,1.45
2018-02-19T01:35:54.982Z,1.46
2018-02-19T01:38:22.397Z,1.49
2018-02-19T01:40:49.814Z,1.46
2018-02-19T01:43:17.249Z,1.41
2018-02-19T01:45:44.668Z,1.45
2018-02-19T01:48:12.096Z,1.48
2018-02-19T01:50:39.505Z,1.46
2018-02-19T01:53:06.935Z,1.53
2018-02-19T01:55:34.358Z,1.52
2018-02-19T01:58:01.794Z,1.53
2018-02-19T02:00:29.213Z,1.47
2018-02-19T02:02:56.632Z,1.50
2018-02-19T02:05:24.050Z,1.52
2018-02-19T02:07:51.473Z,1.51
2018-02-19T02:10:18.894Z,1.51
2018-02-19T02:12:46.314Z,1.46
2018-02-19T02:15:13.746Z,1.41
2018-02-19T02:17:41.174Z,1.50
2018-02-19T02:20:08.593Z,1.40
2018-02-19T02:22:36.074Z,1.37
2018-02-19T02:25:03.491Z,1.44
2018-02-19T02:27:30.920Z,1.40
2018-02-19T02:29:58.329Z,1.43
2018-02-19T02:32:25.786Z,1.32
2018-02-19T02:34:53.215Z,1.29
2018-02-19T02:37:20.625Z,1.21
2018-02-19T02:39:48.060Z,1.25
2018-02-19T02:42:15.475Z,1.29
2018-02-19T02:44:42.895Z,1.24
2018-02-19T02:47:10.316Z,1.23
2018-02-19T02:49:37.747Z,1.18
2018-02-19T02:52:05.169Z,1.20
2018-02-19T02:54:32.578Z,1.12
2018-02-19T02:57:00.014Z,1.03
2018-02-19T02:59:27.435Z,1.07
2018-02-19T03:01:54.854Z,1.07
2018-02-19T03:04:22.279Z,1.12
2018-02-19T03:06:49.706Z,1.13
2018-02-19T03:09:17.140Z,1.19
2018-02-19T03:11:44.541Z,1.10
2018-02-19T03:14:11.968Z,1.18
2018-02-19T03:16:39.381Z,1.13
2018-02-19T03:19:06.821Z,1.25
2018-02-19T03:21:34.234Z,1.24
2018-02-19T03:24:01.662Z,1.31
2018-02-19T03:26:29.074Z,1.32
2018-02-19T03:28:56.499Z,1.36
2018-02-19T03:31:23.919Z,1.32
2018-02-19T03:33:51.337Z,1.32
2018-02-19T03:36:18.778Z,1.34
2018-02-19T03:38:46.204Z,1.42
2018-02-19T03:41:13.635Z,1.42
2018-02-19T03:43:41.054Z,1.44
2018-02-19T03:46:08.469Z,1.55
2018-02-19T03:48:35.895Z,1.52
2018-02-19T03:51:03.323Z,1.50
2018-02-19T03:53:30.752Z,1.45
2018-02-19T03:55:58.169Z,1.41
2018-02-19T03:58:25.599Z,1.44
2018-02-19T04:00:53.015Z,1.41
2018-02-19T04:03:20.430Z,1.48
2018-02-19T04:05:47.854Z,1.54
2018-02-19T04:08:15.313Z,1.57
2018-02-19T04:10:42.740Z,1.51
2018-02-19T04:13:10.170Z,1.55
2018-02-19T04:15:37.828Z,1.59
2018-02-19T04:18:05.255Z,1.62
2018-02-19T04:20:32.682Z,1.58
2018-02-19T04:23:00.111Z,1.60
2018-02-19T04:25:27.526Z,1.57
2018-02-19T04:27:54.980Z,1.58
2018-02-19T04:30:22.389Z,1.58
2018-02-19T04:32:49.818Z,1.58
2018-02-19T04:35:17.245Z,1.56
2018-02-19T04:37:44.694Z,1.46
2018-02-19T04:40:12.118Z,1.41
2018-02-19T04:42:39.529Z,1.33
2018-02-19T04:48:05.993Z,1.32
2018-02-19T04:50:33.435Z,1.32
2018-02-19T04:53:00.886Z,1.31
2018-02-19T04:55:28.321Z,1.37
2018-02-19T04:57:55.745Z,1.40
2018-02-19T05:00:23.166Z,1.45
2018-02-19T05:02:50.590Z,1.47
2018-02-19T05:05:18.002Z,1.40
2018-02-19T05:07:45.442Z,1.43
2018-02-19T05:10:12.863Z,1.38
2018-02-19T05:12:40.348Z,1.47
2018-02-19T05:15:07.766Z,1.46
2018-02-19T05:17:35.181Z,1.46
2018-02-19T05:20:02.674Z,1.50
2018-02-19T05:22:30.089Z,1.45
2018-02-19T05:24:57.506Z,1.56
2018-02-19T05:27:24.929Z,1.62
2018-02-19T05:29:52.351Z,1.57
2018-02-19T05:32:19.782Z,1.67
2018-02-19T05:34:47.212Z,1.58
2018-02-19T05:37:15.358Z,1.61
2018-02-19T05:39:42.779Z,1.69
2018-02-19T05:42:10.195Z,1.67
2018-02-19T05:44:37.639Z,1.72
2018-02-19T05:47:05.042Z,1.76
2018-02-19T05:49:32.473Z,1.74
2018-02-19T05:51:59.898Z,1.70
2018-02-19T05:54:27.339Z,1.74
2018-02-19T05:56:54.759Z,1.76
2018-02-19T05:59:22.194Z,1.78
2018-02-19T06:01:49.874Z,1.77
2018-02-19T06:04:17.285Z,1.77
2018-02-19T06:06:44.722Z,1.81
2018-02-19T06:09:12.139Z,1.79
2018-02-19T06:11:39.556Z,1.77
2018-02-19T06:14:06.986Z,1.85
2018-02-19T06:16:34.401Z,1.91
2018-02-19T06:19:01.826Z,1.92
2018-02-19T06:21:29.245Z,1.93
2018-02-19T06:23:56.677Z,1.94
2018-02-19T06:26:24.109Z,1.96
2018-02-19T06:28:51.536Z,1.94
2018-02-19T06:31:18.982Z,1.93
2018-02-19T06:33:46.392Z,1.85
2018-02-19T06:36:13.844Z,1.90
2018-02-19T06:38:41.278Z,1.86
2018-02-19T06:41:08.735Z,1.92
2018-02-19T06:43:36.158Z,1.95
2018-02-19T06:46:03.594Z,1.91
2018-02-19T06:48:31.033Z,1.91
2018-02-19T06:50:58.461Z,1.90
2018-02-19T06:53:25.882Z,1.97
2018-02-19T06:55:53.302Z,2.00
2018-02-19T06:58:20.749Z,1.98
2018-02-19T07:00:48.178Z,1.97
2018-02-19T07:03:15.620Z,2.00
2018-02-19T07:05:43.026Z,2.00
2018-02-19T07:08:10.494Z,1.92
2018-02-19T07:10:37.963Z,1.99
2018-02-19T07:13:05.441Z,2.04
2018-02-19T07:15:32.893Z,2.08
2018-02-19T07:18:00.337Z,2.04
2018-02-19T07:20:30.691Z,2.19
2018-02-19T07:22:58.107Z,2.10
2018-02-19T07:25:25.529Z,2.15
2018-02-19T07:27:52.961Z,2.21
2018-02-19T07:30:20.410Z,2.29
2018-02-19T07:32:47.845Z,2.36
2018-02-19T07:35:15.287Z,2.40
2018-02-19T07:37:42.754Z,2.43
2018-02-19T07:40:10.175Z,2.49
2018-02-19T07:42:37.598Z,2.41
2018-02-19T07:45:05.022Z,2.46
2018-02-19T07:47:32.446Z,2.46
2018-02-19T07:49:59.867Z,2.53
2018-02-19T07:52:27.302Z,2.53
2018-02-19T07:54:54.719Z,2.55
2018-02-19T07:57:22.142Z,2.54
2018-02-19T07:59:49.562Z,2.54
2018-02-19T08:02:16.985Z,2.68
2018-02-19T08:04:44.400Z,2.78
2018-02-19T08:07:11.818Z,2.83
2018-02-19T08:09:39.250Z,2.81
2018-02-19T08:12:06.666Z,2.88
2018-02-19T08:14:34.095Z,2.97
2018-02-19T08:17:01.516Z,3.05
2018-02-19T08:19:28.934Z,3.10
2018-02-19T08:21:56.362Z,2.96
2018-02-19T08:24:23.783Z,3.04
2018-02-19T08:26:51.217Z,3.04
2018-02-19T08:29:18.635Z,3.11
2018-02-19T08:31:46.059Z,3.19
2018-02-19T08:34:13.486Z,3.19
2018-02-19T08:36:40.910Z,3.26
2018-02-19T08:39:08.345Z,3.20
2018-02-19T08:41:35.768Z,3.29
2018-02-19T08:44:03.186Z,3.40
2018-02-19T08:46:30.622Z,3.29
2018-02-19T08:48:58.063Z,3.39
2018-02-19T08:51:25.466Z,3.36
2018-02-19T08:53:52.890Z,3.45
2018-02-19T08:56:20.330Z,3.46
2018-02-19T08:58:47.870Z,3.53
2018-02-19T09:01:15.306Z,3.56
2018-02-19T09:03:42.736Z,3.78
2018-02-19T09:06:10.158Z,3.88
2018-02-19T09:08:37.590Z,3.89
2018-02-19T09:11:05.025Z,3.93
2018-02-19T09:13:32.454Z,3.99
2018-02-19T09:15:59.946Z,3.91
2018-02-19T09:18:27.358Z,3.97
2018-02-19T09:20:54.794Z,4.08
2018-02-19T09:23:22.244Z,4.16
2018-02-19T09:25:49.670Z,4.08
2018-02-19T09:28:17.106Z,4.16
2018-02-19T09:30:44.558Z,4.12
2018-02-19T09:33:11.993Z,4.13
2018-02-19T09:35:39.426Z,3.94
2018-02-19T09:38:06.863Z,4.02
2018-02-19T09:40:34.325Z,3.90
2018-02-19T09:43:01.766Z,3.87
2018-02-19T09:45:29.240Z,3.90
2018-02-19T09:47:56.671Z,4.07
2018-02-19T09:50:24.142Z,4.07
2018-02-19T09:52:51.579Z,4.23
2018-02-19T09:55:19.037Z,4.35
2018-02-19T09:57:46.463Z,4.36
2018-02-19T10:00:13.894Z,4.58
2018-02-19T10:02:41.326Z,4.56
2018-02-19T10:05:08.745Z,4.44
2018-02-19T10:07:36.166Z,4.60
2018-02-19T10:10:03.924Z,4.62
2018-02-19T10:12:31.302Z,4.55
2018-02-19T10:14:58.718Z,4.80
2018-02-19T10:17:26.143Z,4.96
2018-02-19T10:19:53.551Z,5.05
2018-02-19T10:22:20.978Z,5.17
2018-02-19T10:24:48.394Z,5.39
2018-02-19T10:27:15.806Z,5.49
2018-02-19T10:29:43.255Z,5.50
2018-02-19T10:32:10.650Z,5.39
2018-02-19T10:34:38.070Z,5.57
2018-02-19T10:37:05.482Z,5.53
2018-02-19T10:39:32.901Z,5.49
2018-02-19T10:42:00.314Z,5.46
2018-02-19T10:44:27.732Z,5.49
2018-02-19T10:46:55.150Z,5.82
2018-02-19T10:49:22.562Z,5.75
2018-02-19T10:51:49.979Z,5.51
2018-02-19T10:54:17.391Z,5.75
2018-02-19T10:56:44.817Z,5.92
2018-02-19T10:59:12.237Z,6.07
2018-02-19T11:01:39.646Z,6.25
2018-02-19T11:04:07.074Z,6.20
2018-02-19T11:06:34.482Z,6.26
2018-02-19T11:09:01.906Z,6.47
2018-02-19T11:11:29.314Z,6.69
2018-02-19T11:13:56.737Z,6.94
2018-02-19T11:16:24.146Z,7.24
2018-02-19T11:18:51.557Z,7.23
2018-02-19T11:21:18.979Z,7.41
2018-02-19T11:23:46.398Z,7.45
2018-02-19T11:26:13.822Z,7.43
2018-02-19T11:28:41.237Z,7.46
2018-02-19T11:31:08.650Z,7.13
2018-02-19T11:33:36.068Z,6.83
2018-02-19T11:36:03.478Z,7.03
2018-02-19T11:38:30.918Z,6.86
2018-02-19T11:40:58.330Z,7.05
2018-02-19T11:43:25.738Z,7.05
2018-02-19T11:45:53.161Z,7.19
2018-02-19T11:48:20.568Z,6.89
2018-02-19T11:50:47.990Z,6.77
2018-02-19T11:53:15.402Z,6.88
2018-02-19T11:55:42.829Z,6.73
2018-02-19T11:58:10.246Z,6.76
2018-02-19T12:00:37.658Z,6.94
2018-02-19T12:03:05.086Z,6.91
2018-02-19T12:05:32.506Z,6.97
2018-02-19T12:08:01.551Z,7.25
2018-02-19T12:10:28.974Z,7.29
2018-02-19T12:12:56.411Z,7.37
2018-02-19T12:15:23.818Z,7.58
2018-02-19T12:17:51.234Z,7.50
2018-02-19T12:20:18.656Z,7.70
2018-02-19T12:22:46.078Z,7.71
2018-02-19T12:25:13.502Z,7.68
2018-02-19T12:27:40.911Z,7.48
2018-02-19T12:30:08.345Z,7.41
2018-02-19T12:32:35.762Z,7.68
2018-02-19T12:35:03.171Z,7.72
2018-02-19T12:37:30.586Z,7.80
2018-02-19T12:39:58.004Z,7.93
2018-02-19T12:42:25.417Z,8.00
2018-02-19T12:44:52.831Z,7.83
2018-02-19T12:47:20.269Z,8.05
2018-02-19T12:49:47.682Z,8.04
2018-02-19T12:52:15.094Z,7.94
2018-02-19T12:54:42.517Z,8.12
2018-02-19T12:57:09.927Z,8.31
2018-02-19T12:59:37.347Z,8.51
2018-02-19T13:02:04.766Z,8.61
2018-02-19T13:04:32.199Z,8.94
2018-02-19T13:06:59.614Z,9.23
2018-02-19T13:09:27.085Z,9.35
2018-02-19T13:11:54.511Z,9.23
2018-02-19T13:14:21.918Z,9.00
2018-02-19T13:16:49.343Z,8.77
2018-02-19T13:19:16.758Z,8.80
2018-02-19T13:21:44.169Z,8.93
2018-02-19T13:24:11.595Z,9.12
2018-02-19T13:26:39.010Z,8.77
2018-02-19T13:29:06.430Z,8.85
2018-02-19T13:31:33.842Z,8.92
2018-02-19T13:34:01.279Z,9.02
2018-02-19T13:36:28.701Z,8.96
2018-02-19T13:38:56.094Z,9.07
2018-02-19T13:41:23.515Z,9.09
2018-02-19T13:43:50.930Z,9.04
2018-02-19T13:46:18.366Z,8.88
2018-02-19T13:48:45.781Z,8.81
2018-02-19T13:51:13.201Z,8.63
2018-02-19T13:53:40.624Z,8.57
2018-02-19T13:56:08.034Z,8.39
2018-02-19T13:58:35.458Z,8.37
2018-02-19T14:01:02.867Z,8.38
2018-02-19T14:03:30.285Z,8.48
2018-02-19T14:05:57.705Z,8.55
2018-02-19T14:08:25.114Z,8.52
2018-02-19T14:10:52.542Z,8.31
2018-02-19T14:13:19.954Z,8.44
2018-02-19T14:15:47.391Z,8.35
2018-02-19T14:18:14.806Z,8.38
2018-02-19T14:20:42.226Z,8.29
2018-02-19T14:23:09.638Z,8.25
2018-02-19T14:25:37.062Z,8.14
2018-02-19T14:28:04.491Z,8.24
2018-02-19T14:30:31.901Z,8.34
2018-02-19T14:32:59.311Z,8.43
2018-02-19T14:35:26.730Z,8.38
2018-02-19T14:37:54.144Z,8.36
2018-02-19T14:40:21.588Z,8.42
2018-02-19T14:42:49.006Z,8.35
2018-02-19T14:45:16.411Z,8.39
2018-02-19T14:47:43.826Z,8.16
2018-02-19T14:50:11.237Z,8.07
2018-02-19T14:52:38.674Z,7.95
2018-02-19T14:55:06.126Z,7.92
2018-02-19T14:57:33.530Z,7.61
2018-02-19T15:00:00.950Z,7.65
2018-02-19T15:02:28.357Z,7.67
2018-02-19T15:04:55.801Z,7.63
2018-02-19T15:07:23.218Z,7.67
2018-02-19T15:09:50.639Z,7.78
2018-02-19T15:12:18.062Z,7.54
2018-02-19T15:14:45.475Z,7.52
2018-02-19T15:17:12.899Z,7.63
2018-02-19T15:19:40.326Z,7.57
2018-02-19T15:22:07.738Z,7.51
2018-02-19T15:24:35.155Z,7.64
2018-02-19T15:27:02.570Z,7.53
2018-02-19T15:29:29.999Z,7.58
2018-02-19T15:31:57.410Z,7.60
2018-02-19T15:34:24.830Z,7.52
2018-02-19T15:36:52.255Z,7.42
2018-02-19T15:39:19.666Z,7.28
2018-02-19T15:41:47.101Z,7.30
2018-02-19T15:44:14.514Z,7.25
2018-02-19T15:46:41.918Z,7.22
2018-02-19T15:49:09.344Z,7.23
2018-02-19T15:51:36.754Z,7.13
2018-02-19T15:54:04.181Z,7.22
2018-02-19T15:56:31.598Z,7.09
2018-02-19T15:58:58.997Z,7.05
2018-02-19T16:01:26.422Z,7.03
2018-02-19T16:03:53.836Z,7.03
2018-02-19T16:06:21.266Z,6.99
2018-02-19T16:08:48.674Z,6.97
2018-02-19T16:11:16.106Z,6.98
2018-02-19T16:13:43.526Z,6.98
2018-02-19T16:16:10.934Z,6.99
2018-02-19T16:18:38.358Z,6.94
2018-02-19T16:21:05.774Z,6.89
2018-02-19T16:23:33.231Z,6.87
2018-02-19T16:26:00.605Z,6.85
2018-02-19T16:28:28.035Z,6.84
2018-02-19T16:30:55.474Z,6.80
2018-02-19T16:33:22.894Z,6.76
2018-02-19T16:35:50.311Z,6.65
2018-02-19T16:38:17.747Z,6.54
2018-02-19T16:40:45.160Z,6.38
2018-02-19T16:43:12.594Z,6.38
2018-02-19T16:45:40.007Z,6.24
2018-02-19T16:48:07.425Z,6.20
2018-02-19T16:50:34.850Z,6.18
2018-02-19T16:53:02.278Z,6.12
2018-02-19T16:55:29.687Z,5.96
2018-02-19T16:57:57.094Z,5.90
2018-02-19T17:00:24.510Z,5.88
2018-02-19T17:02:51.933Z,5.89
2018-02-19T17:05:19.346Z,5.87
2018-02-19T17:07:46.785Z,5.82
2018-02-19T17:10:14.194Z,5.81
2018-02-19T17:12:41.603Z,5.73
2018-02-19T17:15:09.018Z,5.75
2018-02-19T17:17:36.446Z,5.74
2018-02-19T17:20:03.886Z,5.70
2018-02-19T17:22:31.301Z,5.68
2018-02-19T17:24:58.718Z,5.62
2018-02-19T17:27:26.153Z,5.65
2018-02-19T17:29:53.574Z,5.62
2018-02-19T17:32:20.998Z,5.57
2018-02-19T17:34:48.650Z,5.54
2018-02-19T17:37:16.069Z,5.53
2018-02-19T17:39:43.499Z,5.45
2018-02-19T17:42:10.948Z,5.39
2018-02-19T17:44:38.377Z,5.36
2018-02-19T17:47:05.798Z,5.28
2018-02-19T17:49:33.224Z,5.26
2018-02-19T17:52:00.646Z,5.25
2018-02-19T17:54:28.061Z,5.24
2018-02-19T17:56:55.497Z,5.20
2018-02-19T17:59:22.914Z,5.17
2018-02-19T18:01:50.343Z,5.18
2018-02-19T18:04:17.762Z,5.16
2018-02-19T18:06:45.174Z,5.13
2018-02-19T18:09:12.598Z,5.08
2018-02-19T18:11:40.015Z,5.07
2018-02-19T18:14:07.426Z,5.05
2018-02-19T18:16:34.863Z,5.02
2018-02-19T18:19:02.290Z,4.98
2018-02-19T18:21:29.718Z,4.91
2018-02-19T18:23:57.122Z,4.86
2018-02-19T18:26:24.535Z,4.81
2018-02-19T18:28:51.954Z,4.75
2018-02-19T18:31:19.367Z,4.73
2018-02-19T18:33:46.802Z,4.69
2018-02-19T18:36:14.218Z,4.66
2018-02-19T18:38:41.632Z,4.66
2018-02-19T18:41:09.045Z,4.53
2018-02-19T18:43:36.459Z,4.46
2018-02-19T18:46:03.902Z,4.48
2018-02-19T18:48:31.315Z,4.50
2018-02-19T18:50:58.740Z,4.49
2018-02-19T18:53:26.239Z,4.47
2018-02-19T18:55:53.665Z,4.49
2018-02-19T18:58:21.114Z,4.51
2018-02-19T19:00:48.526Z,4.52
2018-02-19T19:03:15.942Z,4.52
2018-02-19T19:05:43.369Z,4.49
2018-02-19T19:08:22.388Z,4.50
2018-02-19T19:10:52.322Z,4.50
2018-02-19T19:13:19.734Z,4.47
2018-02-19T19:15:47.179Z,4.47
2018-02-19T19:18:14.695Z,4.49
2018-02-19T19:20:42.101Z,4.54
2018-02-19T19:23:09.531Z,4.50
2018-02-19T19:25:36.942Z,4.55
2018-02-19T19:28:04.371Z,4.49
2018-02-19T19:30:32.738Z,4.48
2018-02-19T19:33:00.147Z,4.54
2018-02-19T19:35:27.665Z,4.57
2018-02-19T19:37:55.074Z,4.57
2018-02-19T19:40:22.541Z,4.50
2018-02-19T19:42:50.047Z,4.55
2018-02-19T19:45:17.462Z,4.56
2018-02-19T19:47:44.881Z,4.52
2018-02-19T19:50:12.504Z,4.48
2018-02-19T19:52:39.958Z,4.56
2018-02-19T19:55:07.397Z,4.56
2018-02-19T19:57:34.818Z,4.51
2018-02-19T20:00:02.271Z,4.54
2018-02-19T20:02:29.771Z,4.39
2018-02-19T20:04:57.468Z,4.48
2018-02-19T20:07:24.876Z,4.54
2018-02-19T20:09:52.355Z,4.52
2018-02-19T20:12:19.761Z,4.52
2018-02-19T20:14:47.206Z,4.51
2018-02-19T20:17:16.510Z,4.51
2018-02-19T20:19:43.914Z,4.45
2018-02-19T20:22:11.334Z,4.48
2018-02-19T20:24:38.754Z,4.34
2018-02-19T20:27:06.171Z,4.26
2018-02-19T20:29:33.582Z,4.26
2018-02-19T20:32:01.022Z,4.25
2018-02-19T20:34:28.441Z,4.21
2018-02-19T20:36:55.851Z,4.15
2018-02-19T20:39:23.280Z,4.08
2018-02-19T20:41:50.686Z,4.03
2018-02-19T20:44:18.101Z,4.05
2018-02-19T20:46:45.523Z,4.02
2018-02-19T20:49:12.958Z,4.01
2018-02-19T20:51:40.372Z,3.90
2018-02-19T20:54:07.791Z,3.88
2018-02-19T20:56:35.218Z,3.85
2018-02-19T20:59:02.633Z,3.81
2018-02-19T21:01:30.061Z,3.76
2018-02-19T21:03:57.470Z,3.70
2018-02-19T21:06:24.896Z,3.64
2018-02-19T21:08:52.307Z,3.57
2018-02-19T21:11:19.731Z,3.53
2018-02-19T21:13:47.164Z,3.48
2018-02-19T21:16:14.590Z,3.49
2018-02-19T21:18:42.084Z,3.50
2018-02-19T21:21:09.451Z,3.47
2018-02-19T21:23:37.307Z,3.42
2018-02-19T21:26:04.782Z,3.35
2018-02-19T21:28:32.197Z,3.34
2018-02-19T21:30:59.622Z,3.24
2018-02-19T21:33:27.046Z,3.21
2018-02-19T21:35:54.469Z,3.23
2018-02-19T21:38:21.905Z,3.24
2018-02-19T21:40:49.329Z,3.23
2018-02-19T21:43:16.762Z,3.24
2018-02-19T21:45:44.189Z,3.21
2018-02-19T21:48:11.615Z,3.21
2018-02-19T21:50:39.027Z,3.32
2018-02-19T21:53:06.454Z,3.27
2018-02-19T21:55:33.874Z,3.22
2018-02-19T21:58:01.302Z,3.23
2018-02-19T22:00:28.730Z,3.20
2018-02-19T22:02:56.168Z,3.14
2018-02-19T22:05:23.585Z,3.15
2018-02-19T22:07:51.034Z,3.14
2018-02-19T22:10:18.421Z,3.10
2018-02-19T22:12:45.846Z,3.10
2018-02-19T22:15:13.282Z,3.08
2018-02-19T22:17:40.742Z,3.06
2018-02-19T22:20:08.619Z,3.02
2018-02-19T22:22:36.048Z,2.99
2018-02-19T22:25:03.479Z,2.97
2018-02-19T22:27:30.919Z,2.94
2018-02-19T22:29:58.337Z,2.91
2018-02-19T22:32:26.050Z,2.94
2018-02-19T22:34:53.481Z,2.89
2018-02-19T22:37:21.295Z,2.79
2018-02-19T22:39:48.750Z,2.74
2018-02-19T22:42:16.429Z,2.71
2018-02-19T22:44:44.207Z,2.77
2018-02-19T22:47:11.636Z,2.74
2018-02-19T22:49:39.051Z,2.80
2018-02-19T22:52:06.563Z,2.77
2018-02-19T22:54:33.949Z,2.71
2018-02-19T22:57:01.394Z,2.74
2018-02-19T22:59:28.814Z,2.75
2018-02-19T23:01:56.229Z,2.81
2018-02-19T23:04:23.658Z,2.80
2018-02-19T23:06:51.086Z,2.94
2018-02-19T23:09:18.522Z,2.97
2018-02-19T23:11:45.948Z,2.98
2018-02-19T23:14:13.406Z,3.09
2018-02-19T23:16:40.798Z,3.11
2018-02-19T23:19:08.231Z,3.07
2018-02-19T23:21:35.674Z,3.03
2018-02-19T23:24:03.091Z,2.97
2018-02-19T23:26:30.510Z,3.04
2018-02-19T23:28:57.969Z,3.09
2018-02-19T23:31:25.389Z,3.10
2018-02-19T23:33:52.835Z,3.10
2018-02-19T23:36:20.258Z,3.09
2018-02-19T23:38:47.692Z,3.06
2018-02-19T23:41:15.113Z,3.02
2018-02-19T23:43:42.551Z,2.96
2018-02-19T23:46:09.985Z,2.93
2018-02-19T23:48:37.408Z,2.88
2018-02-19T23:51:04.837Z,2.82
2018-02-19T23:53:32.262Z,2.79
2018-02-19T23:55:59.689Z,2.73
2018-02-19T23:58:27.123Z,2.67
